createdAt,value
2018-12-10T00:02:12.873Z,-0.02
2018-12-10T00:04:42.042Z,-0.05
2018-12-10T00:07:11.149Z,-0.10
2018-12-10T00:09:40.410Z,-0.07
2018-12-10T00:12:09.560Z,-0.08
2018-12-10T00:14:38.753Z,-0.12
2018-12-10T00:17:07.924Z,-0.14
2018-12-10T00:19:37.067Z,-0.20
2018-12-10T00:22:06.169Z,-0.31
2018-12-10T00:24:35.280Z,-0.32
2018-12-10T00:27:04.420Z,-0.33
2018-12-10T00:29:33.585Z,-0.35
2018-12-10T00:32:02.711Z,-0.38
2018-12-10T00:34:31.833Z,-0.42
2018-12-10T00:37:01.136Z,-0.39
2018-12-10T00:39:30.406Z,-0.39
2018-12-10T00:41:59.524Z,-0.37
2018-12-10T00:44:28.653Z,-0.44
2018-12-10T00:46:57.784Z,-0.45
2018-12-10T00:49:27.018Z,-0.45
2018-12-10T00:51:56.241Z,-0.40
2018-12-10T00:54:25.409Z,-0.41
2018-12-10T00:56:54.507Z,-0.39
2018-12-10T00:59:23.651Z,-0.42
2018-12-10T01:01:52.800Z,-0.43
2018-12-10T01:04:21.958Z,-0.42
2018-12-10T01:06:51.090Z,-0.46
2018-12-10T01:09:20.242Z,-0.50
2018-12-10T01:11:49.365Z,-0.60
2018-12-10T01:14:18.545Z,-0.70
2018-12-10T01:16:47.664Z,-0.79
2018-12-10T01:19:16.781Z,-0.87
2018-12-10T01:21:45.887Z,-0.99
2018-12-10T01:24:15.004Z,-1.03
2018-12-10T01:26:44.149Z,-1.15
2018-12-10T01:29:13.259Z,-1.23
2018-12-10T01:31:42.408Z,-1.37
2018-12-10T01:34:11.556Z,-1.40
2018-12-10T01:36:40.682Z,-1.42
2018-12-10T01:39:09.820Z,-1.42
2018-12-10T01:41:38.961Z,-1.41
2018-12-10T01:44:08.134Z,-1.41
2018-12-10T01:46:37.259Z,-1.46
2018-12-10T01:49:06.397Z,-1.53
2018-12-10T01:51:35.531Z,-1.54
2018-12-10T01:54:04.671Z,-1.50
2018-12-10T01:56:33.794Z,-1.43
2018-12-10T01:59:02.919Z,-1.42
2018-12-10T02:01:32.045Z,-1.37
2018-12-10T02:04:01.153Z,-1.35
2018-12-10T02:06:30.290Z,-1.31
2018-12-10T02:08:59.433Z,-1.30
2018-12-10T02:11:28.566Z,-1.31
2018-12-10T02:13:57.712Z,-1.33
2018-12-10T02:16:26.968Z,-1.40
2018-12-10T02:18:56.138Z,-1.35
2018-12-10T02:21:25.277Z,-1.33
2018-12-10T02:23:54.401Z,-1.32
2018-12-10T02:26:23.573Z,-1.29
2018-12-10T02:29:23.342Z,-1.27
2018-12-10T02:31:52.481Z,-1.30
2018-12-10T02:34:21.598Z,-1.28
2018-12-10T02:36:50.737Z,-1.24
2018-12-10T02:39:19.839Z,-1.22
2018-12-10T02:41:48.984Z,-1.26
2018-12-10T02:44:18.188Z,-1.28
2018-12-10T02:46:47.325Z,-1.33
2018-12-10T02:49:16.493Z,-1.32
2018-12-10T02:51:45.638Z,-1.30
2018-12-10T02:54:14.790Z,-1.31
2018-12-10T02:56:43.928Z,-1.38
2018-12-10T02:59:13.058Z,-1.41
2018-12-10T03:01:42.185Z,-1.51
2018-12-10T03:04:11.311Z,-1.50
2018-12-10T03:06:40.439Z,-1.50
2018-12-10T03:09:09.642Z,-1.46
2018-12-10T03:11:38.774Z,-1.51
2018-12-10T03:14:07.888Z,-1.45
2018-12-10T03:16:37.023Z,-1.45
2018-12-10T03:19:37.180Z,-1.46
2018-12-10T03:22:06.358Z,-1.54
2018-12-10T03:24:35.492Z,-1.60
2018-12-10T03:27:04.621Z,-1.59
2018-12-10T03:29:33.745Z,-1.62
2018-12-10T03:32:03.002Z,-1.64
2018-12-10T03:34:32.227Z,-1.67
2018-12-10T03:37:01.372Z,-1.67
2018-12-10T03:42:05.926Z,-1.74
2018-12-10T03:44:35.053Z,-1.75
2018-12-10T03:47:04.756Z,-1.74
2018-12-10T03:49:33.879Z,-1.74
2018-12-10T03:52:03.054Z,-1.73
2018-12-10T03:54:32.189Z,-1.70
2018-12-10T03:57:01.309Z,-1.69
2018-12-10T03:59:30.421Z,-1.73
2018-12-10T04:01:59.573Z,-1.74
2018-12-10T04:04:28.702Z,-1.70
2018-12-10T04:06:57.838Z,-1.75
2018-12-10T04:09:27.004Z,-1.75
2018-12-10T04:11:56.199Z,-1.76
2018-12-10T04:14:25.311Z,-1.75
2018-12-10T04:16:54.516Z,-1.80
2018-12-10T04:19:23.683Z,-1.84
2018-12-10T04:21:52.848Z,-1.93
2018-12-10T04:24:21.965Z,-1.94
2018-12-10T04:26:51.117Z,-1.98
2018-12-10T04:29:20.234Z,-2.01
2018-12-10T04:31:49.403Z,-2.01
2018-12-10T04:34:18.529Z,-2.03
2018-12-10T04:36:47.688Z,-2.06
2018-12-10T04:39:16.830Z,-2.04
2018-12-10T04:41:45.985Z,-2.08
2018-12-10T04:44:15.121Z,-2.14
2018-12-10T04:46:44.280Z,-2.19
2018-12-10T04:49:13.412Z,-2.21
2018-12-10T04:51:42.517Z,-2.25
2018-12-10T04:54:11.650Z,-2.17
2018-12-10T05:00:13.066Z,-2.17
2018-12-10T05:02:42.228Z,-2.06
2018-12-10T05:05:11.389Z,-1.99
2018-12-10T05:07:40.513Z,-1.93
2018-12-10T05:10:09.613Z,-1.79
2018-12-10T05:12:38.742Z,-1.75
2018-12-10T05:15:07.876Z,-1.70
2018-12-10T05:17:37.045Z,-1.66
2018-12-10T05:20:06.337Z,-1.62
2018-12-10T05:22:35.496Z,-1.57
2018-12-10T05:25:04.634Z,-1.57
2018-12-10T05:27:33.809Z,-1.53
2018-12-10T05:30:02.962Z,-1.50
2018-12-10T05:32:32.136Z,-1.44
2018-12-10T05:35:01.277Z,-1.40
2018-12-10T05:37:30.437Z,-1.37
2018-12-10T05:39:59.589Z,-1.35
2018-12-10T05:42:28.697Z,-1.38
2018-12-10T05:44:57.826Z,-1.45
2018-12-10T05:47:26.939Z,-1.52
2018-12-10T05:49:55.589Z,-1.47
2018-12-10T05:52:24.634Z,-1.50
2018-12-10T05:54:53.672Z,-1.61
2018-12-10T05:57:22.710Z,-1.60
2018-12-10T05:59:51.738Z,-1.64
2018-12-10T06:02:20.767Z,-1.58
2018-12-10T06:04:49.817Z,-1.57
2018-12-10T06:07:18.853Z,-1.64
2018-12-10T06:09:47.865Z,-1.61
2018-12-10T06:12:16.898Z,-1.53
2018-12-10T06:14:45.912Z,-1.35
2018-12-10T06:17:14.922Z,-1.04
2018-12-10T06:19:43.944Z,-0.68
2018-12-10T06:22:12.956Z,-0.33
2018-12-10T06:24:41.985Z,-0.03
2018-12-10T06:27:11.060Z,0.18
2018-12-10T06:29:40.072Z,0.35
2018-12-10T06:32:09.149Z,0.45
2018-12-10T06:34:38.169Z,0.66
2018-12-10T06:37:07.520Z,0.86
2018-12-10T06:39:36.537Z,0.92
2018-12-10T06:42:05.565Z,1.09
2018-12-10T06:44:34.841Z,1.19
2018-12-10T06:47:03.860Z,1.15
2018-12-10T06:49:32.869Z,1.22
2018-12-10T06:52:01.870Z,1.25
2018-12-10T06:54:30.889Z,1.24
2018-12-10T06:57:00.007Z,1.16
2018-12-10T06:59:29.065Z,1.14
2018-12-10T07:01:58.061Z,1.22
2018-12-10T07:04:27.083Z,1.33
2018-12-10T07:06:56.113Z,1.49
2018-12-10T07:09:25.133Z,1.58
2018-12-10T07:11:54.166Z,1.56
2018-12-10T07:14:23.364Z,1.59
2018-12-10T07:16:54.467Z,1.61
2018-12-10T07:19:23.500Z,1.74
2018-12-10T07:21:52.609Z,1.72
2018-12-10T07:24:21.591Z,1.74
2018-12-10T07:26:50.712Z,1.79
2018-12-10T07:29:19.738Z,1.80
2018-12-10T07:31:48.751Z,1.90
2018-12-10T07:34:17.745Z,1.96
2018-12-10T07:36:46.740Z,2.02
2018-12-10T07:39:15.741Z,2.09
2018-12-10T07:41:44.745Z,2.20
2018-12-10T07:44:13.935Z,2.23
2018-12-10T07:46:42.975Z,2.34
2018-12-10T07:49:11.988Z,2.39
2018-12-10T07:51:41.025Z,2.43
2018-12-10T07:54:10.070Z,2.48
2018-12-10T07:56:39.105Z,2.47
2018-12-10T07:59:08.108Z,2.42
2018-12-10T08:01:37.137Z,2.26
2018-12-10T08:04:06.200Z,2.27
2018-12-10T08:06:35.225Z,2.40
2018-12-10T08:09:05.269Z,2.49
2018-12-10T08:11:34.285Z,2.60
2018-12-10T08:14:03.652Z,2.73
2018-12-10T08:16:32.847Z,2.80
2018-12-10T08:19:01.865Z,2.81
2018-12-10T08:21:30.850Z,3.02
2018-12-10T08:23:59.849Z,3.24
2018-12-10T08:26:28.841Z,3.41
2018-12-10T08:29:03.879Z,3.53
2018-12-10T08:31:28.918Z,3.59
2018-12-10T08:33:57.941Z,3.67
2018-12-10T08:36:26.954Z,3.86
2018-12-10T08:38:56.014Z,3.96
2018-12-10T08:41:25.041Z,4.14
2018-12-10T08:43:54.169Z,4.34
2018-12-10T08:46:23.316Z,4.38
2018-12-10T08:48:52.432Z,4.33
2018-12-10T08:51:21.561Z,4.31
2018-12-10T08:53:50.666Z,4.29
2018-12-10T08:56:19.810Z,4.32
2018-12-10T08:58:48.942Z,4.34
2018-12-10T09:01:18.052Z,4.43
2018-12-10T09:03:47.194Z,4.53
2018-12-10T09:06:16.314Z,4.68
2018-12-10T09:08:45.529Z,4.69
2018-12-10T09:11:14.669Z,4.80
2018-12-10T09:13:43.769Z,4.77
2018-12-10T09:16:12.906Z,4.95
2018-12-10T09:18:42.023Z,5.10
2018-12-10T09:21:11.145Z,5.07
2018-12-10T09:23:40.281Z,5.30
2018-12-10T09:26:10.046Z,5.38
2018-12-10T09:28:40.270Z,5.65
2018-12-10T09:31:09.372Z,5.79
2018-12-10T09:33:38.490Z,5.92
2018-12-10T09:36:07.610Z,6.05
2018-12-10T09:38:36.728Z,6.05
2018-12-10T09:41:05.840Z,5.92
2018-12-10T09:43:34.950Z,6.01
2018-12-10T09:46:04.090Z,6.03
2018-12-10T09:48:33.223Z,5.96
2018-12-10T09:51:02.341Z,6.04
2018-12-10T09:53:31.457Z,6.14
2018-12-10T09:58:37.173Z,6.01
2018-12-10T10:01:06.300Z,6.10
2018-12-10T10:04:06.069Z,6.25
2018-12-10T10:06:35.141Z,6.18
2018-12-10T10:09:05.337Z,6.42
2018-12-10T10:11:34.456Z,6.61
2018-12-10T10:14:03.574Z,6.79
2018-12-10T10:16:32.703Z,7.00
2018-12-10T10:19:01.812Z,7.03
2018-12-10T10:21:30.898Z,7.18
2018-12-10T10:24:00.006Z,7.32
2018-12-10T10:26:29.097Z,7.30
2018-12-10T10:28:58.233Z,7.50
2018-12-10T10:31:27.317Z,7.68
2018-12-10T10:33:56.425Z,7.97
2018-12-10T10:36:25.525Z,8.63
2018-12-10T10:38:54.628Z,8.95
2018-12-10T10:41:31.127Z,9.36
2018-12-10T10:43:54.877Z,9.86
2018-12-10T10:46:23.987Z,10.19
2018-12-10T10:48:53.097Z,10.98
2018-12-10T10:51:22.217Z,11.81
2018-12-10T10:53:51.305Z,12.26
2018-12-10T10:56:20.430Z,12.93
2018-12-10T10:58:49.561Z,13.49
2018-12-10T11:01:26.713Z,13.60
2018-12-10T11:03:55.817Z,13.11
2018-12-10T11:06:24.952Z,12.65
2018-12-10T11:08:54.048Z,12.11
2018-12-10T11:11:23.139Z,11.74
2018-12-10T11:13:52.261Z,11.35
2018-12-10T11:16:21.380Z,10.81
2018-12-10T11:18:50.533Z,10.67
2018-12-10T11:21:19.617Z,10.42
2018-12-10T11:23:48.728Z,10.27
2018-12-10T11:26:17.837Z,10.06
2018-12-10T11:28:46.930Z,9.82
2018-12-10T11:31:17.275Z,9.52
2018-12-10T11:33:47.454Z,9.34
2018-12-10T11:36:16.832Z,9.04
2018-12-10T11:38:45.901Z,8.63
2018-12-10T11:41:15.020Z,8.46
2018-12-10T11:43:44.120Z,8.25
2018-12-10T11:46:13.253Z,8.21
2018-12-10T11:48:42.377Z,8.14
2018-12-10T11:51:11.583Z,8.03
2018-12-10T11:53:40.676Z,8.01
2018-12-10T11:56:09.781Z,8.01
2018-12-10T11:58:38.873Z,8.08
2018-12-10T12:01:07.986Z,8.16
2018-12-10T12:03:37.124Z,8.26
2018-12-10T12:06:06.262Z,8.17
2018-12-10T12:08:35.414Z,8.19
2018-12-10T12:11:04.518Z,8.00
2018-12-10T12:13:33.609Z,7.96
2018-12-10T12:16:02.724Z,7.86
2018-12-10T12:18:31.811Z,7.87
2018-12-10T12:21:00.880Z,7.85
2018-12-10T12:23:29.964Z,7.89
2018-12-10T12:25:59.123Z,7.81
2018-12-10T12:28:28.233Z,7.76
2018-12-10T12:30:57.327Z,7.58
2018-12-10T12:33:26.452Z,7.48
2018-12-10T12:35:55.573Z,7.42
2018-12-10T12:38:24.678Z,7.47
2018-12-10T12:40:53.785Z,7.50
2018-12-10T12:43:22.890Z,7.56
2018-12-10T12:45:52.008Z,7.59
2018-12-10T12:48:21.120Z,7.59
2018-12-10T12:50:50.324Z,7.74
2018-12-10T12:53:19.415Z,7.70
2018-12-10T12:55:48.541Z,7.66
2018-12-10T12:58:17.663Z,7.69
2018-12-10T13:00:46.771Z,7.65
2018-12-10T13:03:15.945Z,7.53
2018-12-10T13:05:45.135Z,7.49
2018-12-10T13:08:14.245Z,7.43
2018-12-10T13:10:43.379Z,7.45
2018-12-10T13:13:12.478Z,7.45
2018-12-10T13:15:41.624Z,7.40
2018-12-10T13:18:10.723Z,7.38
2018-12-10T13:20:39.830Z,7.39
2018-12-10T13:23:08.934Z,7.39
2018-12-10T13:25:38.054Z,7.33
2018-12-10T13:28:07.145Z,7.18
2018-12-10T13:30:36.268Z,7.02
2018-12-10T13:33:05.485Z,6.98
2018-12-10T13:38:06.757Z,6.87
2018-12-10T13:40:34.812Z,6.90
2018-12-10T13:43:03.933Z,6.95
2018-12-10T13:45:33.039Z,6.97
2018-12-10T13:48:02.147Z,6.96
2018-12-10T13:50:31.274Z,6.96
2018-12-10T13:53:00.400Z,6.95
2018-12-10T13:55:29.556Z,6.94
2018-12-10T13:57:58.657Z,6.88
2018-12-10T14:00:29.281Z,6.84
2018-12-10T14:03:02.585Z,6.76
2018-12-10T14:05:31.723Z,6.68
2018-12-10T14:08:00.834Z,6.65
2018-12-10T14:10:30.062Z,6.61
2018-12-10T14:12:59.151Z,6.59
2018-12-10T14:15:28.292Z,6.41
2018-12-10T14:17:57.425Z,6.30
2018-12-10T14:20:26.558Z,6.19
2018-12-10T14:22:55.645Z,6.15
2018-12-10T14:25:27.329Z,6.10
2018-12-10T14:27:56.455Z,6.07
2018-12-10T14:30:25.555Z,6.02
2018-12-10T14:32:54.694Z,6.05
2018-12-10T14:35:23.825Z,6.00
2018-12-10T14:37:52.936Z,5.90
2018-12-10T14:40:22.097Z,5.82
2018-12-10T14:42:53.978Z,5.78
2018-12-10T14:45:23.086Z,5.76
2018-12-10T14:47:53.829Z,5.75
2018-12-10T14:50:22.940Z,5.74
2018-12-10T14:52:52.433Z,5.77
2018-12-10T14:55:21.537Z,5.78
2018-12-10T14:57:50.672Z,5.78
2018-12-10T15:00:19.815Z,5.76
2018-12-10T15:02:48.951Z,5.70
2018-12-10T15:05:18.070Z,5.69
2018-12-10T15:07:47.209Z,5.62
2018-12-10T15:10:16.344Z,5.57
2018-12-10T15:12:45.453Z,5.55
2018-12-10T15:15:14.569Z,5.44
2018-12-10T15:17:43.694Z,5.37
2018-12-10T15:20:14.432Z,5.26
2018-12-10T15:22:43.608Z,5.14
2018-12-10T15:25:12.750Z,5.05
2018-12-10T15:27:41.874Z,5.02
2018-12-10T15:30:12.624Z,4.96
2018-12-10T15:32:41.727Z,4.90
2018-12-10T15:35:10.850Z,4.89
2018-12-10T15:37:39.967Z,4.80
2018-12-10T15:40:09.156Z,4.73
2018-12-10T15:42:38.373Z,4.69
2018-12-10T15:45:09.890Z,4.61
2018-12-10T15:47:39.021Z,4.53
2018-12-10T15:50:08.154Z,4.52
2018-12-10T15:52:37.254Z,4.44
2018-12-10T15:55:06.520Z,4.43
2018-12-10T15:57:35.663Z,4.33
2018-12-10T16:00:05.141Z,4.31
2018-12-10T16:02:34.277Z,4.33
2018-12-10T16:05:03.369Z,4.24
2018-12-10T16:07:32.511Z,4.25
2018-12-10T16:10:01.677Z,4.21
2018-12-10T16:12:31.924Z,4.19
2018-12-10T16:15:01.049Z,4.11
2018-12-10T16:17:30.193Z,4.05
2018-12-10T16:19:59.305Z,4.06
2018-12-10T16:22:28.432Z,4.01
2018-12-10T16:24:57.578Z,4.01
2018-12-10T16:27:26.819Z,4.03
2018-12-10T16:29:55.973Z,3.97
2018-12-10T16:32:25.102Z,3.98
2018-12-10T16:34:54.215Z,3.97
2018-12-10T16:37:23.320Z,4.01
2018-12-10T16:39:52.427Z,4.04
2018-12-10T16:42:21.541Z,4.10
2018-12-10T16:44:50.649Z,4.16
2018-12-10T16:47:19.845Z,4.23
2018-12-10T16:49:48.977Z,4.29
2018-12-10T16:52:19.088Z,4.33
2018-12-10T16:54:48.218Z,4.45
2018-12-10T16:57:17.378Z,4.54
2018-12-10T16:59:46.492Z,4.60
2018-12-10T17:02:15.609Z,4.65
2018-12-10T17:04:44.704Z,4.71
2018-12-10T17:07:13.863Z,4.68
2018-12-10T17:09:43.270Z,4.76
2018-12-10T17:12:12.509Z,4.86
2018-12-10T17:15:12.424Z,4.92
2018-12-10T17:17:41.723Z,4.94
2018-12-10T17:20:10.864Z,5.00
2018-12-10T17:22:39.995Z,5.08
2018-12-10T17:25:09.291Z,5.16
2018-12-10T17:27:38.393Z,5.30
2018-12-10T17:30:08.058Z,5.38
2018-12-10T17:32:37.172Z,5.50
2018-12-10T17:35:06.970Z,5.59
2018-12-10T17:37:36.122Z,5.66
2018-12-10T17:40:05.300Z,5.74
2018-12-10T17:42:34.429Z,5.78
2018-12-10T17:45:03.586Z,5.88
2018-12-10T17:47:32.713Z,5.95
2018-12-10T17:50:02.222Z,6.02
2018-12-10T17:52:31.340Z,6.10
2018-12-10T17:55:00.505Z,6.19
2018-12-10T17:57:29.675Z,6.22
2018-12-10T17:59:58.797Z,6.26
2018-12-10T18:02:27.930Z,6.32
2018-12-10T18:04:57.082Z,6.41
2018-12-10T18:07:26.207Z,6.42
2018-12-10T18:09:55.431Z,6.43
2018-12-10T18:12:24.560Z,6.35
2018-12-10T18:14:53.712Z,6.41
2018-12-10T18:17:22.868Z,6.36
2018-12-10T18:19:56.142Z,6.41
2018-12-10T18:22:25.844Z,6.38
2018-12-10T18:24:55.931Z,6.32
2018-12-10T18:27:26.563Z,6.34
2018-12-10T18:29:55.754Z,6.26
2018-12-10T18:32:25.382Z,6.30
2018-12-10T18:34:55.332Z,6.30
2018-12-10T18:37:28.802Z,6.28
2018-12-10T18:39:58.049Z,6.26
2018-12-10T18:42:27.569Z,6.30
2018-12-10T18:44:57.169Z,6.29
2018-12-10T18:47:26.320Z,6.31
2018-12-10T18:49:55.459Z,6.29
2018-12-10T18:52:24.609Z,6.32
2018-12-10T18:54:53.742Z,6.25
2018-12-10T18:57:22.892Z,6.21
2018-12-10T18:59:52.033Z,6.24
2018-12-10T19:02:21.184Z,6.20
2018-12-10T19:04:50.301Z,6.20
2018-12-10T19:07:19.385Z,6.13
2018-12-10T19:09:48.499Z,6.21
2018-12-10T19:12:17.663Z,6.26
2018-12-10T19:14:46.846Z,6.22
2018-12-10T19:17:16.010Z,6.22
2018-12-10T19:19:45.257Z,6.25
2018-12-10T19:22:14.347Z,6.22
2018-12-10T19:24:43.477Z,6.18
2018-12-10T19:27:12.566Z,6.23
2018-12-10T19:29:41.700Z,6.19
2018-12-10T19:32:10.853Z,6.16
2018-12-10T19:34:40.035Z,6.15
2018-12-10T19:37:09.120Z,6.18
2018-12-10T19:39:38.294Z,6.16
2018-12-10T19:42:07.415Z,6.18
2018-12-10T19:44:36.559Z,6.15
2018-12-10T19:47:07.574Z,6.15
2018-12-10T19:49:37.014Z,6.18
2018-12-10T19:52:06.123Z,6.15
2018-12-10T19:54:35.286Z,6.19
2018-12-10T19:57:04.762Z,6.22
2018-12-10T19:59:33.873Z,6.19
2018-12-10T20:02:03.000Z,6.17
2018-12-10T20:04:32.153Z,6.19
2018-12-10T20:07:06.179Z,6.15
2018-12-10T20:09:35.988Z,6.10
2018-12-10T20:12:05.152Z,6.11
2018-12-10T20:14:34.307Z,6.04
2018-12-10T20:17:03.469Z,6.01
2018-12-10T20:19:32.577Z,5.95
2018-12-10T20:22:01.770Z,5.89
2018-12-10T20:24:30.983Z,5.91
2018-12-10T20:27:00.174Z,5.90
2018-12-10T20:29:29.312Z,5.87
2018-12-10T20:31:58.425Z,5.85
2018-12-10T20:34:27.538Z,5.86
2018-12-10T20:36:56.645Z,5.89
2018-12-10T20:39:25.770Z,5.93
2018-12-10T20:41:54.878Z,5.96
2018-12-10T20:44:23.981Z,5.94
2018-12-10T20:46:53.070Z,5.91
2018-12-10T20:49:22.232Z,5.90
2018-12-10T20:51:51.336Z,5.94
2018-12-10T20:54:20.457Z,5.89
2018-12-10T20:56:49.577Z,5.86
2018-12-10T20:59:18.673Z,5.91
2018-12-10T21:01:47.788Z,5.92
2018-12-10T21:04:16.905Z,5.89
2018-12-10T21:06:46.038Z,5.90
2018-12-10T21:09:15.190Z,5.86
2018-12-10T21:11:44.290Z,5.84
2018-12-10T21:14:13.445Z,5.86
2018-12-10T21:16:42.550Z,5.82
2018-12-10T21:19:11.668Z,5.75
2018-12-10T21:21:40.744Z,5.74
2018-12-10T21:24:09.859Z,5.79
2018-12-10T21:26:38.938Z,5.79
2018-12-10T21:29:08.008Z,5.80
2018-12-10T21:31:37.120Z,5.81
2018-12-10T21:34:06.259Z,5.81
2018-12-10T21:36:35.368Z,5.78
2018-12-10T21:39:05.565Z,5.81
2018-12-10T21:41:34.653Z,5.85
2018-12-10T21:44:03.948Z,5.88
2018-12-10T21:46:33.193Z,5.89
2018-12-10T21:49:02.324Z,5.89
2018-12-10T21:51:31.447Z,5.92
2018-12-10T21:54:00.567Z,5.87
2018-12-10T21:56:29.696Z,5.91
2018-12-10T21:58:58.823Z,5.85
2018-12-10T22:01:27.912Z,5.89
2018-12-10T22:03:57.063Z,5.81
2018-12-10T22:06:26.173Z,5.74
2018-12-10T22:08:55.297Z,5.69
2018-12-10T22:11:24.418Z,5.60
2018-12-10T22:13:53.522Z,5.50
2018-12-10T22:16:22.596Z,5.51
2018-12-10T22:19:06.124Z,5.44
2018-12-10T22:21:35.231Z,5.46
2018-12-10T22:24:04.310Z,5.49
2018-12-10T22:26:33.408Z,5.45
2018-12-10T22:29:02.508Z,5.47
2018-12-10T22:31:31.644Z,5.38
2018-12-10T22:34:01.578Z,5.43
2018-12-10T22:36:30.684Z,5.44
2018-12-10T22:38:59.775Z,5.42
2018-12-10T22:41:28.898Z,5.38
2018-12-10T22:43:58.140Z,5.35
2018-12-10T22:46:27.240Z,5.32
2018-12-10T22:48:56.410Z,5.31
2018-12-10T22:51:25.517Z,5.28
2018-12-10T22:53:54.605Z,5.34
2018-12-10T22:56:23.689Z,5.36
2018-12-10T22:58:52.810Z,5.36
2018-12-10T23:01:21.897Z,5.39
2018-12-10T23:03:51.013Z,5.42
2018-12-10T23:06:20.133Z,5.48
2018-12-10T23:08:49.234Z,5.37
2018-12-10T23:11:18.388Z,5.36
2018-12-10T23:13:47.518Z,5.35
2018-12-10T23:16:16.616Z,5.48
2018-12-10T23:18:45.713Z,5.47
2018-12-10T23:21:14.804Z,5.53
2018-12-10T23:23:43.896Z,5.51
2018-12-10T23:26:13.001Z,5.58
2018-12-10T23:28:42.122Z,5.54
2018-12-10T23:31:11.226Z,5.58
2018-12-10T23:33:40.294Z,5.54
2018-12-10T23:36:09.449Z,5.51
2018-12-10T23:38:38.565Z,5.59
2018-12-10T23:41:07.676Z,5.57
2018-12-10T23:43:36.803Z,5.67
2018-12-10T23:46:05.897Z,5.67
2018-12-10T23:48:35.010Z,5.63
2018-12-10T23:51:04.117Z,5.57
2018-12-10T23:53:33.185Z,5.52
2018-12-10T23:56:02.294Z,5.51
2018-12-10T23:58:31.407Z,5.41
